Time;durP1;ratioP1;P1;durP2;ratioP2;P2;SDS_P1;SDS_P2;PMS_P1;PMS_P2;Temp;Humidity;BMP_temperature;BMP_pressure;BME280_temperature;BME280_humidity;BME280_pressure;Samples;Min_cycle;Max_cycle;Signal;HPM_P1;HPM_P2
2023/05/18 06:26:47;;;;;;;2.73;1.30;;;11.60;99.90;;;;;;5035361;23;20471;-76
2023/05/18 06:29:15;;;;;;;2.27;1.50;;;11.80;99.90;;;;;;4935246;29;20215;-76
2023/05/18 06:31:42;;;;;;;6.73;1.60;;;12.10;99.90;;;;;;4937387;29;20240;-76
2023/05/18 06:34:09;;;;;;;2.23;1.40;;;11.90;99.90;;;;;;4937612;29;20718;-76
2023/05/18 06:36:36;;;;;;;8.10;1.63;;;12.10;99.90;;;;;;4937624;29;20215;-76
2023/05/18 06:39:04;;;;;;;8.70;1.60;;;12.30;99.90;;;;;;4937510;29;20243;-76
2023/05/18 06:41:31;;;;;;;5.17;1.90;;;12.60;99.90;;;;;;4937724;29;20208;-76
2023/05/18 06:44:00;;;;;;;5.90;1.80;;;12.70;99.90;;;;;;4937488;29;20311;-75
2023/05/18 06:46:28;;;;;;;5.53;1.53;;;12.70;99.90;;;;;;4937479;29;20244;-75
2023/05/18 06:48:55;;;;;;;6.13;1.90;;;12.10;99.90;;;;;;4937449;29;20744;-76
2023/05/18 06:51:22;;;;;;;5.90;1.63;;;12.50;99.90;;;;;;4937408;29;20251;-76
2023/05/18 06:53:49;;;;;;;4.93;1.60;;;13.20;99.90;;;;;;4937097;29;20276;-76
2023/05/18 06:56:17;;;;;;;3.70;1.70;;;14.00;99.90;;;;;;4937388;29;20209;-75
2023/05/18 06:58:44;;;;;;;4.23;1.77;;;15.00;99.90;;;;;;4937140;29;20208;-76
2023/05/18 07:01:11;;;;;;;7.03;1.60;;;15.30;99.90;;;;;;4936623;29;20686;-76
2023/05/18 07:03:40;;;;;;;5.47;1.57;;;15.90;99.90;;;;;;4936341;29;20264;-76
2023/05/18 07:06:07;;;;;;;3.30;1.60;;;16.00;99.90;;;;;;4936459;29;20737;-75
2023/05/18 07:08:35;;;;;;;7.37;1.60;;;16.60;99.90;;;;;;4936835;29;20204;-76
2023/05/18 07:11:02;;;;;;;5.07;2.10;;;16.80;99.90;;;;;;4936758;29;20212;-76
2023/05/18 07:13:29;;;;;;;5.53;1.70;;;17.10;99.90;;;;;;4936478;29;20269;-75
2023/05/18 07:15:57;;;;;;;3.97;1.77;;;16.90;99.90;;;;;;4936660;29;20248;-75
2023/05/18 07:18:24;;;;;;;3.83;1.97;;;16.70;99.90;;;;;;4936412;29;20268;-76
2023/05/18 07:20:52;;;;;;;5.53;1.90;;;17.00;99.90;;;;;;4936712;29;20212;-75
2023/05/18 07:23:19;;;;;;;4.00;1.67;;;17.30;99.90;;;;;;4936274;29;20672;-76
2023/05/18 07:25:47;;;;;;;6.82;1.80;;;17.30;99.90;;;;;;4936859;29;20240;-75
2023/05/18 07:28:14;;;;;;;4.25;1.55;;;17.60;99.90;;;;;;4936346;29;20224;-76
2023/05/18 07:30:41;;;;;;;3.53;1.60;;;17.70;99.90;;;;;;4936437;29;20296;-75
2023/05/18 07:33:08;;;;;;;7.97;2.28;;;17.50;99.00;;;;;;4935633;29;20690;-77
2023/05/18 07:35:36;;;;;;;5.07;1.45;;;17.00;99.70;;;;;;4933558;29;20652;-77
2023/05/18 07:38:05;;;;;;;3.60;1.52;;;17.80;99.70;;;;;;4935838;29;20625;-77
2023/05/18 07:40:31;;;;;;;3.85;1.70;;;18.60;98.60;;;;;;4935906;29;20233;-77
2023/05/18 07:42:58;;;;;;;3.33;1.63;;;18.90;98.40;;;;;;4935043;29;20288;-77
2023/05/18 07:45:25;;;;;;;7.15;1.67;;;18.90;98.30;;;;;;4935630;29;20307;-77
2023/05/18 07:47:52;;;;;;;6.00;2.05;;;18.10;98.30;;;;;;4935429;29;20612;-76
2023/05/18 07:50:19;;;;;;;5.55;1.70;;;17.90;99.10;;;;;;4935769;29;20288;-77
2023/05/18 07:52:46;;;;;;;4.63;1.83;;;18.60;98.20;;;;;;4935450;29;20293;-77
2023/05/18 07:55:15;;;;;;;7.57;1.65;;;19.60;98.00;;;;;;4935277;29;20655;-76
2023/05/18 07:57:42;;;;;;;8.10;2.00;;;20.20;96.90;;;;;;4935268;29;20664;-77
2023/05/18 08:00:10;;;;;;;4.05;1.63;;;20.30;96.30;;;;;;4935829;29;20302;-77
2023/05/18 08:02:37;;;;;;;7.78;2.20;;;20.60;96.60;;;;;;4935947;29;20300;-77
2023/05/18 08:05:04;;;;;;;3.97;1.83;;;20.70;96.40;;;;;;4935869;29;20755;-77
2023/05/18 08:07:32;;;;;;;6.43;2.13;;;21.30;96.60;;;;;;4936030;29;20213;-77
2023/05/18 08:09:59;;;;;;;5.60;2.03;;;21.20;95.80;;;;;;4935876;29;20247;-76
2023/05/18 08:12:28;;;;;;;5.70;1.80;;;21.70;95.90;;;;;;4935772;29;20692;-74
2023/05/18 08:14:55;;;;;;;4.28;2.03;;;22.40;95.90;;;;;;4935444;29;20244;-74
2023/05/18 08:17:22;;;;;;;4.43;1.80;;;22.50;94.30;;;;;;4936063;29;20300;-77
2023/05/18 08:19:49;;;;;;;4.25;1.60;;;22.30;94.70;;;;;;4935984;29;20267;-77
2023/05/18 08:22:16;;;;;;;6.43;2.00;;;22.40;94.30;;;;;;4935561;29;20240;-76
2023/05/18 08:24:43;;;;;;;7.20;1.88;;;22.30;94.40;;;;;;4935737;29;20323;-77
2023/05/18 08:27:10;;;;;;;6.25;2.10;;;21.70;94.50;;;;;;4935402;29;20676;-77
2023/05/18 08:29:39;;;;;;;7.93;1.88;;;21.20;94.80;;;;;;4935519;29;20299;-77
2023/05/18 08:32:06;;;;;;;7.53;2.42;;;21.20;94.90;;;;;;4935305;29;20640;-77
2023/05/18 08:34:33;;;;;;;6.97;2.05;;;20.90;95.20;;;;;;4935433;29;20584;-76
2023/05/18 08:37:00;;;;;;;5.47;1.88;;;19.70;96.40;;;;;;4935404;29;20300;-76
2023/05/18 08:39:30;;;;;;;7.18;1.83;;;19.30;96.60;;;;;;4935617;29;20647;-76
2023/05/18 08:42:02;;;;;;;3.97;2.10;;;18.90;97.60;;;;;;4935339;29;20263;-77
2023/05/18 08:44:35;;;;;;;5.03;1.70;;;18.90;96.80;;;;;;4935138;29;20263;-77
2023/05/18 08:47:08;;;;;;;6.63;2.35;;;19.20;96.50;;;;;;4935565;29;20212;-76
2023/05/18 08:49:36;;;;;;;4.00;1.75;;;18.90;96.80;;;;;;4935698;29;20323;-77
2023/05/18 08:52:05;;;;;;;5.30;1.92;;;18.70;97.00;;;;;;4935750;29;20243;-76
2023/05/18 08:54:35;;;;;;;5.03;2.00;;;18.40;96.90;;;;;;4936939;29;20278;-77
2023/05/18 08:57:07;;;;;;;4.95;2.38;;;18.90;97.50;;;;;;4939509;29;20240;-76
2023/05/18 08:59:40;;;;;;;3.58;1.90;;;19.10;96.90;;;;;;4939085;29;20248;-77
2023/05/18 09:02:09;;;;;;;6.40;2.25;;;19.60;96.30;;;;;;4939298;29;20208;-77
2023/05/18 09:04:37;;;;;;;6.72;2.13;;;19.80;96.20;;;;;;4939105;29;20228;-76
2023/05/18 09:07:05;;;;;;;4.25;2.08;;;19.60;96.20;;;;;;4939217;29;20751;-76
2023/05/18 09:09:32;;;;;;;4.00;2.30;;;19.10;95.90;;;;;;4939253;29;20236;-76
2023/05/18 09:11:59;;;;;;;2.80;1.80;;;18.70;96.60;;;;;;4939095;29;20205;-77
2023/05/18 09:14:26;;;;;;;5.17;1.90;;;18.10;96.90;;;;;;4938915;29;20324;-76
2023/05/18 09:16:54;;;;;;;5.83;1.90;;;17.40;98.20;;;;;;4939116;29;20300;-77
2023/05/18 09:19:23;;;;;;;4.03;1.90;;;17.30;99.00;;;;;;4938735;29;20212;-76
2023/05/18 09:21:50;;;;;;;8.02;1.80;;;17.90;98.00;;;;;;4938427;29;20690;-77
2023/05/18 09:24:18;;;;;;;6.10;1.98;;;18.40;97.20;;;;;;4938714;29;20319;-76
2023/05/18 09:26:45;;;;;;;7.85;2.10;;;18.10;97.30;;;;;;4938554;29;20217;-76
2023/05/18 09:29:20;;;;;;;3.45;1.65;;;18.50;97.60;;;;;;4938409;29;20299;-76
2023/05/18 09:31:47;;;;;;;7.13;1.85;;;18.90;97.50;;;;;;4938465;29;20710;-77
2023/05/18 09:34:14;;;;;;;5.57;2.00;;;18.90;96.60;;;;;;4938167;29;20280;-76
2023/05/18 09:36:48;;;;;;;4.15;1.90;;;19.00;96.40;;;;;;4938538;29;20694;-77
2023/05/18 09:39:15;;;;;;;3.67;1.55;;;19.00;95.50;;;;;;4938779;29;20232;-77
2023/05/18 09:41:42;;;;;;;4.07;1.50;;;18.90;95.90;;;;;;4938341;29;20295;-76
2023/05/18 09:44:09;;;;;;;3.95;1.80;;;18.50;96.50;;;;;;4938070;29;20264;-76
2023/05/18 09:46:36;;;;;;;4.03;1.70;;;19.00;95.90;;;;;;4938165;29;20219;-76
2023/05/18 09:49:05;;;;;;;4.28;1.40;;;19.00;95.20;;;;;;4938446;29;20216;-77
2023/05/18 09:51:35;;;;;;;4.20;1.60;;;18.60;95.20;;;;;;4938423;29;20217;-77
2023/05/18 09:54:05;;;;;;;3.65;1.52;;;17.80;95.10;;;;;;4937991;29;20592;-77
2023/05/18 09:56:34;;;;;;;2.42;1.70;;;17.30;95.40;;;;;;4937807;29;20224;-76
2023/05/18 09:59:09;;;;;;;3.87;1.83;;;17.00;96.70;;;;;;4938046;29;20244;-77
2023/05/18 10:01:37;;;;;;;4.57;2.20;;;17.20;96.10;;;;;;4938221;29;20214;-77
2023/05/18 10:04:05;;;;;;;7.40;1.97;;;17.00;96.30;;;;;;4938206;29;20236;-77
2023/05/18 10:06:32;;;;;;;2.70;1.40;;;17.10;96.40;;;;;;4937361;29;20264;-76
2023/05/18 10:09:04;;;;;;;5.67;1.90;;;17.00;96.40;;;;;;4938115;29;20255;-76
2023/05/18 10:11:33;;;;;;;4.23;2.13;;;17.30;96.30;;;;;;4938358;29;20592;-77
2023/05/18 10:14:00;;;;;;;3.07;1.37;;;17.00;95.80;;;;;;4938013;29;20611;-76
2023/05/18 10:16:27;;;;;;;3.63;1.93;;;16.90;96.30;;;;;;4937956;29;20243;-76
2023/05/18 10:18:55;;;;;;;4.07;1.40;;;16.80;96.20;;;;;;4937638;29;20239;-77
2023/05/18 10:21:28;;;;;;;5.17;1.33;;;16.70;96.80;;;;;;4937610;29;20674;-77
2023/05/18 10:23:55;;;;;;;6.17;2.10;;;17.10;97.00;;;;;;4937365;29;20233;-76
2023/05/18 10:26:28;;;;;;;5.47;1.50;;;17.40;95.90;;;;;;4937902;29;20315;-77
2023/05/18 10:28:56;;;;;;;3.50;1.50;;;17.20;96.30;;;;;;4937475;29;20635;-78
2023/05/18 10:31:24;;;;;;;2.57;1.30;;;17.30;95.20;;;;;;4937365;29;20209;-76
2023/05/18 10:33:53;;;;;;;3.03;1.40;;;17.50;95.60;;;;;;4937191;29;20233;-77
2023/05/18 10:36:21;;;;;;;6.33;1.63;;;17.70;95.70;;;;;;4936963;29;20232;-77
2023/05/18 10:38:48;;;;;;;3.33;1.60;;;17.60;95.40;;;;;;4937465;29;20556;-77
2023/05/18 10:41:21;;;;;;;3.83;1.90;;;17.50;95.60;;;;;;4937207;29;20377;-77
2023/05/18 10:43:51;;;;;;;3.27;1.27;;;17.40;96.60;;;;;;4937255;29;20657;-76
2023/05/18 10:46:20;;;;;;;6.23;1.70;;;17.40;95.60;;;;;;4937278;29;20287;-77
2023/05/18 10:48:51;;;;;;;4.10;1.57;;;17.30;95.90;;;;;;4937376;29;20248;-76
2023/05/18 10:51:20;;;;;;;2.93;1.40;;;17.30;95.90;;;;;;4937273;29;20567;-76
2023/05/18 10:53:48;;;;;;;2.70;1.50;;;17.30;95.50;;;;;;4937336;29;20233;-77
2023/05/18 10:56:16;;;;;;;3.50;1.60;;;17.00;96.30;;;;;;4937177;29;20760;-77
2023/05/18 10:58:44;;;;;;;4.33;1.60;;;17.10;95.20;;;;;;4936967;29;20228;-76
2023/05/18 11:01:13;;;;;;;1.83;1.43;;;17.20;95.80;;;;;;4936947;29;20216;-76
2023/05/18 11:03:40;;;;;;;9.10;1.83;;;17.20;95.80;;;;;;4936806;29;20229;-77
2023/05/18 11:06:10;;;;;;;4.87;1.60;;;17.30;96.00;;;;;;4936554;29;20223;-77
2023/05/18 11:08:46;;;;;;;4.97;1.90;;;17.20;95.80;;;;;;4936935;29;20609;-77
2023/05/18 11:11:13;;;;;;;2.57;1.40;;;17.20;94.80;;;;;;4936767;29;20216;-75
2023/05/18 11:13:45;;;;;;;4.07;1.43;;;17.30;95.90;;;;;;4936650;29;20256;-76
2023/05/18 11:16:15;;;;;;;4.47;1.50;;;17.30;95.00;;;;;;4936642;29;20232;-77
2023/05/18 11:18:44;;;;;;;3.50;1.70;;;17.40;94.70;;;;;;4935895;29;20236;-77
2023/05/18 11:21:50;;;;;;;4.50;1.50;;;17.30;95.20;;;;;;4936438;29;20299;-77
2023/05/18 11:24:23;;;;;;;3.07;1.40;;;17.10;94.10;;;;;;4936185;29;20232;-76
2023/05/18 11:26:51;;;;;;;3.67;1.60;;;17.20;95.30;;;;;;4936512;29;20248;-77
2023/05/18 11:29:24;;;;;;;2.20;1.30;;;17.00;95.60;;;;;;4936052;29;20201;-76
2023/05/18 11:31:54;;;;;;;4.10;1.30;;;17.00;95.20;;;;;;4936211;29;20243;-77
2023/05/18 11:34:40;;;;;;;2.47;1.20;;;17.40;95.70;;;;;;4935659;29;20260;-77
2023/05/18 11:37:08;;;;;;;4.93;2.00;;;17.60;95.20;;;;;;4935776;29;20245;-77
2023/05/18 11:39:36;;;;;;;2.90;1.53;;;17.30;95.80;;;;;;4936273;29;20612;-77
2023/05/18 11:42:07;;;;;;;6.17;1.50;;;17.40;95.50;;;;;;4936115;29;20204;-76
2023/05/18 11:44:34;;;;;;;3.50;1.63;;;17.30;94.90;;;;;;4935934;29;20252;-76
2023/05/18 11:47:04;;;;;;;4.70;1.30;;;17.30;94.90;;;;;;4936424;29;20236;-77
2023/05/18 11:49:33;;;;;;;3.17;1.60;;;17.20;95.40;;;;;;4936104;29;20267;-77
2023/05/18 11:52:04;;;;;;;4.37;1.30;;;17.20;95.20;;;;;;4936318;29;20620;-75
2023/05/18 11:54:38;;;;;;;3.10;1.33;;;17.10;94.80;;;;;;4936174;29;20260;-76
2023/05/18 11:57:05;;;;;;;3.27;1.53;;;17.40;95.50;;;;;;4935987;29;20299;-77
2023/05/18 11:59:34;;;;;;;5.10;1.87;;;17.60;94.30;;;;;;4936263;29;20295;-76
2023/05/18 12:02:03;;;;;;;2.50;1.43;;;17.60;94.30;;;;;;4936109;29;20262;-76
2023/05/18 12:04:32;;;;;;;4.70;1.87;;;17.60;94.30;;;;;;4935594;29;20232;-76
2023/05/18 12:07:00;;;;;;;3.37;1.50;;;17.60;94.30;;;;;;4935163;29;20563;-77
2023/05/18 12:09:30;;;;;;;6.00;2.10;;;17.60;94.40;;;;;;4935778;29;20217;-76
2023/05/18 12:11:57;;;;;;;3.17;1.83;;;17.60;94.10;;;;;;4935892;29;20244;-76
2023/05/18 12:14:24;;;;;;;9.40;2.17;;;17.80;94.10;;;;;;4935602;29;20260;-76
2023/05/18 12:16:53;;;;;;;3.97;1.40;;;17.50;94.30;;;;;;4935862;29;20319;-76
2023/05/18 12:19:22;;;;;;;5.60;2.13;;;17.40;94.20;;;;;;4935841;29;20288;-77
2023/05/18 12:21:49;;;;;;;4.20;1.57;;;17.10;95.30;;;;;;4935510;29;20549;-77
2023/05/18 12:24:16;;;;;;;2.70;1.47;;;17.10;94.50;;;;;;4936212;29;20311;-75
2023/05/18 12:26:45;;;;;;;5.33;1.80;;;17.20;94.60;;;;;;4935647;29;20584;-76
2023/05/18 12:29:18;;;;;;;7.07;2.17;;;17.50;94.40;;;;;;4935404;29;20232;-77
2023/05/18 12:31:46;;;;;;;5.47;1.47;;;17.40;94.30;;;;;;4935392;29;20212;-77
2023/05/18 12:34:14;;;;;;;4.97;2.10;;;17.00;94.80;;;;;;4935315;29;20652;-76
2023/05/18 12:36:52;;;;;;;3.40;1.70;;;17.10;94.90;;;;;;4935439;29;20236;-77
2023/05/18 12:39:19;;;;;;;3.93;2.00;;;17.30;94.70;;;;;;4935585;29;20240;-76
2023/05/18 12:41:46;;;;;;;4.03;2.00;;;17.00;95.10;;;;;;4935303;29;20652;-76
2023/05/18 12:44:13;;;;;;;3.43;1.70;;;17.30;95.10;;;;;;4935531;29;20284;-76
2023/05/18 12:46:42;;;;;;;1.77;1.53;;;17.30;95.40;;;;;;4935408;29;20243;-76
2023/05/18 12:49:09;;;;;;;5.37;1.90;;;17.30;94.60;;;;;;4935102;29;20686;-76
2023/05/18 12:51:38;;;;;;;2.70;1.33;;;17.30;94.70;;;;;;4935356;29;20205;-76
2023/05/18 12:54:08;;;;;;;3.27;1.70;;;17.00;95.70;;;;;;4935544;29;20628;-76
2023/05/18 12:56:51;;;;;;;4.23;2.10;;;17.10;95.40;;;;;;4935286;29;20327;-76
2023/05/18 12:59:19;;;;;;;3.30;1.60;;;17.10;95.90;;;;;;4934970;29;20240;-76
2023/05/18 13:01:46;;;;;;;5.27;1.90;;;17.20;95.20;;;;;;4935119;29;20213;-76
2023/05/18 13:04:13;;;;;;;4.43;1.73;;;17.10;95.60;;;;;;4935337;29;20257;-76
2023/05/18 13:06:41;;;;;;;4.70;2.10;;;17.30;95.80;;;;;;4935053;29;20683;-76
2023/05/18 13:09:12;;;;;;;8.87;1.90;;;17.40;95.90;;;;;;4935264;29;20212;-76
2023/05/18 13:11:39;;;;;;;4.93;1.80;;;17.60;96.10;;;;;;4935511;29;20216;-76
2023/05/18 13:14:09;;;;;;;5.20;2.13;;;17.30;95.50;;;;;;4935101;29;20233;-77
2023/05/18 13:16:38;;;;;;;5.20;2.10;;;17.30;95.10;;;;;;4934964;29;20601;-75
2023/05/18 13:19:08;;;;;;;3.10;1.60;;;17.40;95.00;;;;;;4935028;29;20209;-76
2023/05/18 13:21:36;;;;;;;2.93;1.47;;;17.20;94.50;;;;;;4934955;29;20244;-76
2023/05/18 13:24:03;;;;;;;3.33;1.70;;;17.30;94.80;;;;;;4935174;29;20378;-77
2023/05/18 13:26:31;;;;;;;5.53;1.60;;;17.10;95.60;;;;;;4935161;29;20213;-77
2023/05/18 13:28:59;;;;;;;2.93;1.70;;;17.20;95.40;;;;;;4934863;29;20605;-76
2023/05/18 13:31:28;;;;;;;4.40;1.83;;;17.00;95.50;;;;;;4934934;29;20209;-76
2023/05/18 13:33:55;;;;;;;4.37;2.03;;;17.00;95.70;;;;;;4934912;29;20225;-76
2023/05/18 13:36:23;;;;;;;2.93;1.50;;;17.30;94.70;;;;;;4934503;29;20308;-75
2023/05/18 13:38:51;;;;;;;4.33;1.80;;;17.50;95.70;;;;;;4928272;29;20217;-77
2023/05/18 13:41:17;;;;;;;4.30;1.60;;;17.40;94.50;;;;;;4934095;29;20220;-74
2023/05/18 13:43:49;;;;;;;3.07;1.60;;;17.50;94.60;;;;;;4937174;29;20292;-73
2023/05/18 13:46:16;;;;;;;5.10;1.73;;;17.40;94.50;;;;;;4936835;29;20209;-76
2023/05/18 13:48:42;;;;;;;3.67;1.73;;;17.10;94.80;;;;;;4936261;29;20342;-76
2023/05/18 13:51:09;;;;;;;4.03;1.53;;;17.30;96.10;;;;;;4937141;29;20272;-76
2023/05/18 13:53:36;;;;;;;6.33;1.60;;;17.60;95.00;;;;;;4942895;29;20718;-77
2023/05/18 13:56:04;;;;;;;5.13;1.77;;;17.60;94.60;;;;;;4951745;29;20232;-77
2023/05/18 13:58:30;;;;;;;4.77;1.80;;;17.70;94.50;;;;;;4954341;29;20216;-76
2023/05/18 14:01:02;;;;;;;3.77;1.67;;;17.90;94.70;;;;;;4952387;29;20212;-77
2023/05/18 14:03:29;;;;;;;8.03;2.17;;;17.70;95.00;;;;;;4936728;29;20799;-78
2023/05/18 14:05:56;;;;;;;2.50;1.50;;;17.60;94.80;;;;;;4937049;29;20208;-77
2023/05/18 14:08:23;;;;;;;4.30;1.73;;;17.30;94.80;;;;;;4936349;29;20225;-78
2023/05/18 14:10:50;;;;;;;2.90;1.50;;;17.20;94.40;;;;;;4937072;29;20212;-78
2023/05/18 14:13:17;;;;;;;2.90;1.30;;;17.40;95.20;;;;;;4936630;29;20216;-76
2023/05/18 14:15:44;;;;;;;4.93;2.10;;;17.60;94.60;;;;;;4936198;29;20356;-77
2023/05/18 14:18:12;;;;;;;3.30;1.33;;;17.50;93.90;;;;;;4951062;29;20216;-77
2023/05/18 14:20:39;;;;;;;5.60;1.93;;;17.70;93.30;;;;;;4955689;28;20690;-77
2023/05/18 14:23:06;;;;;;;2.40;1.50;;;17.70;93.70;;;;;;4955208;28;20240;-78
2023/05/18 14:25:33;;;;;;;2.30;1.40;;;17.50;93.40;;;;;;4956084;28;20242;-78
2023/05/18 14:28:00;;;;;;;5.60;1.37;;;17.20;93.50;;;;;;4942829;28;20220;-78
2023/05/18 14:30:27;;;;;;;3.07;1.10;;;17.00;94.00;;;;;;4936004;29;20690;-78
2023/05/18 14:32:54;;;;;;;3.00;1.20;;;17.00;94.70;;;;;;4936347;29;20212;-77
2023/05/18 14:35:22;;;;;;;3.13;1.20;;;17.10;94.40;;;;;;4936325;29;20787;-77
2023/05/18 14:37:49;;;;;;;3.70;1.20;;;17.40;94.20;;;;;;4935675;29;20497;-79
2023/05/18 14:40:16;;;;;;;6.10;1.77;;;17.70;94.30;;;;;;4938897;29;20209;-78
2023/05/18 14:42:43;;;;;;;3.50;1.50;;;17.70;93.70;;;;;;4938981;29;20212;-77
2023/05/18 14:45:10;;;;;;;3.90;1.23;;;17.60;93.20;;;;;;4937090;29;20739;-79
2023/05/18 14:47:37;;;;;;;4.33;1.30;;;17.60;94.10;;;;;;4945985;29;20209;-77
2023/05/18 14:50:05;;;;;;;4.10;1.50;;;17.50;95.10;;;;;;4942893;29;20276;-79
2023/05/18 14:52:33;;;;;;;3.80;1.23;;;17.30;95.20;;;;;;4939355;29;20301;-78
2023/05/18 14:55:00;;;;;;;4.10;1.20;;;17.40;95.20;;;;;;4947131;29;20261;-79
2023/05/18 14:57:27;;;;;;;3.33;1.30;;;17.30;95.30;;;;;;4943860;29;20229;-77
2023/05/18 14:59:54;;;;;;;3.83;1.77;;;17.30;94.90;;;;;;4939498;29;20284;-78
2023/05/18 15:02:21;;;;;;;1.90;1.30;;;17.00;95.50;;;;;;4935675;29;20612;-77
2023/05/18 15:04:48;;;;;;;3.17;1.33;;;16.90;95.60;;;;;;4934959;29;20224;-79
2023/05/18 15:07:15;;;;;;;3.67;1.70;;;17.30;96.20;;;;;;4935257;29;20217;-78
2023/05/18 15:09:44;;;;;;;5.83;1.53;;;17.60;95.20;;;;;;4935949;29;20251;-74
2023/05/18 15:12:11;;;;;;;3.90;1.20;;;17.70;94.60;;;;;;4935806;29;20538;-77
2023/05/18 15:14:38;;;;;;;5.10;1.40;;;17.70;94.40;;;;;;4934606;29;20260;-76
2023/05/18 15:17:07;;;;;;;6.33;1.67;;;17.10;95.00;;;;;;4935992;29;20323;-76
2023/05/18 15:19:34;;;;;;;6.13;1.60;;;17.00;95.60;;;;;;4935678;29;20219;-77
2023/05/18 15:22:01;;;;;;;5.00;1.47;;;17.30;95.70;;;;;;4935009;29;20209;-77
2023/05/18 15:24:28;;;;;;;3.17;1.70;;;17.40;95.10;;;;;;4935507;29;20279;-76
2023/05/18 15:26:56;;;;;;;4.60;1.37;;;17.40;95.00;;;;;;4935377;29;20276;-78
2023/05/18 15:29:23;;;;;;;3.57;1.60;;;17.50;95.20;;;;;;4934845;29;20247;-76
2023/05/18 15:31:52;;;;;;;3.60;1.10;;;17.30;94.40;;;;;;4935438;29;20275;-77
2023/05/18 15:34:19;;;;;;;4.50;1.47;;;17.10;95.20;;;;;;4935007;29;20287;-79
2023/05/18 15:36:47;;;;;;;2.80;1.30;;;17.30;95.50;;;;;;4934485;29;20272;-78
2023/05/18 15:39:14;;;;;;;2.73;1.17;;;17.50;94.90;;;;;;4935374;29;20209;-77
2023/05/18 15:41:41;;;;;;;5.10;1.20;;;17.70;95.30;;;;;;4935714;29;20243;-76
2023/05/18 15:44:09;;;;;;;5.03;1.37;;;17.70;95.40;;;;;;4936140;29;20256;-76
2023/05/18 15:46:36;;;;;;;5.13;1.40;;;17.50;95.50;;;;;;4935177;29;20259;-76
2023/05/18 15:49:03;;;;;;;3.87;1.50;;;17.40;95.10;;;;;;4936084;29;20240;-75
2023/05/18 15:51:30;;;;;;;4.50;1.20;;;17.30;95.30;;;;;;4936024;29;20208;-75
2023/05/18 15:53:57;;;;;;;4.77;1.20;;;17.30;95.30;;;;;;4936235;29;20236;-77
2023/05/18 15:56:24;;;;;;;3.93;1.33;;;17.10;95.70;;;;;;4935774;29;20231;-77
2023/05/18 15:58:51;;;;;;;6.97;1.20;;;17.00;95.50;;;;;;4935849;29;20635;-77
2023/05/18 16:01:20;;;;;;;3.97;1.37;;;17.10;96.00;;;;;;4935435;29;20241;-77
2023/05/18 16:03:47;;;;;;;3.67;1.67;;;17.30;95.70;;;;;;4934895;29;20707;-77
2023/05/18 16:06:13;;;;;;;4.27;1.50;;;17.40;95.40;;;;;;4935822;29;20244;-76
2023/05/18 16:08:40;;;;;;;2.50;1.30;;;17.40;95.00;;;;;;4935828;29;20212;-76
2023/05/18 16:11:07;;;;;;;4.70;1.40;;;17.40;95.10;;;;;;4935571;29;20248;-77
2023/05/18 16:13:34;;;;;;;4.50;1.47;;;17.40;95.40;;;;;;4935515;29;20260;-77
2023/05/18 16:16:02;;;;;;;1.87;1.00;;;17.40;95.00;;;;;;4935310;29;20300;-76
2023/05/18 16:18:30;;;;;;;7.00;1.50;;;17.30;94.70;;;;;;4935498;29;20303;-76
2023/05/18 16:20:57;;;;;;;5.67;1.43;;;17.40;94.80;;;;;;4935991;29;20691;-75
2023/05/18 16:23:24;;;;;;;3.47;1.40;;;17.40;95.10;;;;;;4935481;29;20306;-77
2023/05/18 16:25:51;;;;;;;4.67;1.27;;;17.60;94.60;;;;;;4935920;29;20236;-75
2023/05/18 16:28:18;;;;;;;4.00;1.20;;;17.60;94.60;;;;;;4935471;29;20259;-76
2023/05/18 16:30:45;;;;;;;3.93;1.57;;;17.40;95.50;;;;;;4935376;29;20295;-75
2023/05/18 16:33:12;;;;;;;3.63;1.40;;;17.30;94.90;;;;;;4935403;29;20295;-75
2023/05/18 16:35:40;;;;;;;5.33;1.47;;;17.20;95.10;;;;;;4935037;29;20240;-72
2023/05/18 16:38:07;;;;;;;2.93;1.43;;;17.30;94.90;;;;;;4934955;29;20320;-74
2023/05/18 16:40:34;;;;;;;4.33;1.37;;;17.40;95.10;;;;;;4934537;29;20295;-73
2023/05/18 16:43:01;;;;;;;4.63;1.20;;;17.50;94.60;;;;;;4935054;29;20624;-74
2023/05/18 16:45:28;;;;;;;5.73;1.37;;;17.50;94.50;;;;;;4935135;29;20232;-74
2023/05/18 16:47:55;;;;;;;3.13;1.27;;;17.30;95.10;;;;;;4935358;29;20236;-73
2023/05/18 16:50:22;;;;;;;4.03;1.10;;;17.30;94.40;;;;;;4935059;29;20348;-73
2023/05/18 16:52:50;;;;;;;2.40;1.20;;;17.20;94.30;;;;;;4935280;29;20236;-74
2023/05/18 16:55:17;;;;;;;3.47;1.20;;;17.30;94.60;;;;;;4935259;29;20315;-73
2023/05/18 16:57:44;;;;;;;2.37;1.30;;;17.00;94.10;;;;;;4935004;29;20276;-74
2023/05/18 17:00:12;;;;;;;2.50;1.23;;;17.00;94.00;;;;;;4935465;29;20687;-73
2023/05/18 17:02:39;;;;;;;7.20;1.60;;;17.10;94.50;;;;;;4935419;29;20248;-74
2023/05/18 17:05:07;;;;;;;3.53;1.40;;;16.80;95.10;;;;;;4935295;29;20224;-74
2023/05/18 17:07:34;;;;;;;4.27;1.60;;;16.70;95.80;;;;;;4935135;29;20260;-74
2023/05/18 17:10:03;;;;;;;7.23;1.30;;;16.70;95.50;;;;;;4934908;29;20236;-74
2023/05/18 17:12:32;;;;;;;10.20;1.67;;;16.60;95.40;;;;;;4935383;29;20219;-74
2023/05/18 17:15:01;;;;;;;6.60;1.20;;;16.50;95.60;;;;;;4935817;29;20232;-75
2023/05/18 17:17:28;;;;;;;3.80;1.23;;;16.60;95.70;;;;;;4938514;29;20240;-73
2023/05/18 17:19:55;;;;;;;2.63;1.23;;;16.70;96.10;;;;;;4938716;29;20299;-75
2023/05/18 17:22:22;;;;;;;6.20;1.77;;;16.50;95.80;;;;;;4938532;29;20311;-73
2023/05/18 17:24:49;;;;;;;2.60;1.23;;;16.40;95.80;;;;;;4937962;29;20268;-73
2023/05/18 17:27:17;;;;;;;3.13;1.20;;;16.60;96.00;;;;;;4937983;29;20672;-74
2023/05/18 17:29:44;;;;;;;7.70;1.80;;;16.50;96.20;;;;;;4937752;29;20209;-74
2023/05/18 17:32:11;;;;;;;3.93;1.53;;;16.40;95.90;;;;;;4938090;29;20755;-74
2023/05/18 17:34:39;;;;;;;4.27;1.83;;;16.30;95.70;;;;;;4938266;29;20260;-73
2023/05/18 17:37:07;;;;;;;4.00;1.70;;;16.30;96.10;;;;;;4938245;29;20237;-73
2023/05/18 17:39:34;;;;;;;4.23;1.23;;;16.50;96.10;;;;;;4937801;29;20213;-74
2023/05/18 17:42:02;;;;;;;4.13;1.23;;;16.50;96.10;;;;;;4938040;29;20287;-75
2023/05/18 17:44:30;;;;;;;4.97;1.50;;;16.50;95.90;;;;;;4938221;29;20260;-76
2023/05/18 17:46:57;;;;;;;3.97;1.40;;;16.70;95.60;;;;;;4938341;29;20303;-74
2023/05/18 17:49:24;;;;;;;4.47;1.60;;;16.70;95.80;;;;;;4938255;29;20213;-75
2023/05/18 17:51:51;;;;;;;4.37;1.50;;;16.80;96.00;;;;;;4937992;29;20224;-80
2023/05/18 17:54:18;;;;;;;7.57;1.57;;;16.70;95.60;;;;;;4937736;29;20260;-78
2023/05/18 17:56:45;;;;;;;2.37;1.37;;;16.60;95.20;;;;;;4937605;29;20232;-79
2023/05/18 17:59:12;;;;;;;3.93;1.43;;;16.60;95.30;;;;;;4937401;29;20217;-78
2023/05/18 18:01:41;;;;;;;3.00;1.20;;;16.50;95.70;;;;;;4937750;29;20213;-74
2023/05/18 18:04:08;;;;;;;7.97;2.10;;;16.50;95.50;;;;;;4937942;29;20708;-76
2023/05/18 18:06:35;;;;;;;3.90;1.60;;;16.50;95.50;;;;;;4937722;29;20243;-74
2023/05/18 18:09:04;;;;;;;5.73;1.87;;;16.30;95.60;;;;;;4938271;29;20240;-74
2023/05/18 18:11:31;;;;;;;4.27;1.60;;;16.10;96.00;;;;;;4937993;29;20209;-77
2023/05/18 18:13:58;;;;;;;3.53;1.10;;;15.90;96.20;;;;;;4937863;29;20256;-74
2023/05/18 18:16:25;;;;;;;3.80;1.20;;;15.90;96.50;;;;;;4937670;29;20212;-73
2023/05/18 18:18:53;;;;;;;3.67;1.23;;;16.00;96.50;;;;;;4937785;29;20335;-75
2023/05/18 18:21:20;;;;;;;5.40;1.40;;;16.00;96.10;;;;;;4937551;29;20255;-75
2023/05/18 18:23:47;;;;;;;6.17;1.10;;;16.00;96.20;;;;;;4952067;23;20263;-73
2023/05/18 18:26:14;;;;;;;3.87;1.30;;;15.90;96.10;;;;;;4956559;28;20235;-72
2023/05/18 18:28:41;;;;;;;4.63;1.27;;;15.80;96.10;;;;;;4956768;28;20294;-72
2023/05/18 18:31:08;;;;;;;2.87;1.00;;;15.80;96.10;;;;;;4956470;28;20208;-72
2023/05/18 18:33:35;;;;;;;4.37;1.10;;;15.70;96.30;;;;;;4956344;28;20314;-72
2023/05/18 18:36:06;;;;;;;3.83;1.90;;;15.60;96.50;;;;;;4956814;28;20664;-73
2023/05/18 18:38:33;;;;;;;2.27;1.00;;;15.40;96.60;;;;;;4956485;28;20827;-72
2023/05/18 18:41:03;;;;;;;2.67;0.97;;;15.40;96.80;;;;;;4956847;28;20212;-73
2023/05/18 18:43:29;;;;;;;4.23;1.17;;;15.60;96.80;;;;;;4956750;28;20232;-73
2023/05/18 18:45:56;;;;;;;3.77;1.23;;;15.80;96.60;;;;;;4956629;28;20304;-73
2023/05/18 18:48:23;;;;;;;2.80;1.20;;;15.70;96.90;;;;;;4956505;28;20690;-73
2023/05/18 18:50:50;;;;;;;5.97;1.30;;;15.50;97.30;;;;;;4956690;28;20212;-73
2023/05/18 18:53:19;;;;;;;2.80;1.30;;;15.40;97.40;;;;;;4956294;28;20667;-73
2023/05/18 18:55:45;;;;;;;3.80;1.67;;;15.60;97.40;;;;;;4956378;28;20240;-72
2023/05/18 18:58:12;;;;;;;4.30;1.20;;;15.50;97.50;;;;;;4955749;28;20232;-73
2023/05/18 19:00:39;;;;;;;2.73;1.40;;;15.40;98.00;;;;;;4945276;28;20286;-73
2023/05/18 19:03:08;;;;;;;2.43;1.47;;;15.40;98.10;;;;;;4943390;28;20246;-73
2023/05/18 19:05:35;;;;;;;5.20;1.40;;;15.30;98.10;;;;;;4947907;28;20208;-73
2023/05/18 19:08:02;;;;;;;2.37;1.30;;;15.30;98.30;;;;;;4949159;28;20204;-73
2023/05/18 19:10:31;;;;;;;4.20;2.03;;;15.30;98.30;;;;;;4939670;28;20225;-73
2023/05/18 19:13:03;;;;;;;2.50;1.40;;;15.10;98.50;;;;;;4950703;28;21423;-73
2023/05/18 19:15:31;;;;;;;3.27;1.30;;;15.10;98.60;;;;;;4949231;28;20232;-73
2023/05/18 19:17:58;;;;;;;5.07;1.40;;;15.00;98.70;;;;;;4949046;28;20232;-72